sensor_id;sensor_type;location;lat;lon;timestamp;pressure;altitude;pressure_sealevel;temperature;humidity
72892;BME280;61032;50.782;6.818;2023-12-07T00:00:46;100905.78;;;3.44;77.60
72892;BME280;61032;50.782;6.818;2023-12-07T00:01:46;100913.94;;;3.39;77.45
72892;BME280;61032;50.782;6.818;2023-12-07T00:02:47;100911.22;;;3.34;77.54
72892;BME280;61032;50.782;6.818;2023-12-07T00:03:47;100915.56;;;3.35;77.40
72892;BME280;61032;50.782;6.818;2023-12-07T00:04:47;100913.66;;;3.16;77.64
72892;BME280;61032;50.782;6.818;2023-12-07T00:05:47;100915.03;;;3.23;77.83
72892;BME280;61032;50.782;6.818;2023-12-07T00:06:48;100909.88;;;3.27;78.25
72892;BME280;61032;50.782;6.818;2023-12-07T00:07:48;100916.09;;;3.22;77.73
72892;BME280;61032;50.782;6.818;2023-12-07T00:08:48;100913.41;;;3.22;78.99
72892;BME280;61032;50.782;6.818;2023-12-07T00:09:49;100918.84;;;3.27;78.61
72892;BME280;61032;50.782;6.818;2023-12-07T00:10:49;100920.72;;;3.27;78.19
72892;BME280;61032;50.782;6.818;2023-12-07T00:11:50;100919.38;;;3.24;78.49
72892;BME280;61032;50.782;6.818;2023-12-07T00:12:50;100922.09;;;3.09;78.51
72892;BME280;61032;50.782;6.818;2023-12-07T00:13:51;100928.31;;;3.15;79.20
72892;BME280;61032;50.782;6.818;2023-12-07T00:14:51;100918.53;;;3.19;78.83
72892;BME280;61032;50.782;6.818;2023-12-07T00:15:51;100922.09;;;3.29;79.08
72892;BME280;61032;50.782;6.818;2023-12-07T00:16:52;100917.75;;;3.28;78.96
72892;BME280;61032;50.782;6.818;2023-12-07T00:17:52;100922.09;;;3.24;79.04
72892;BME280;61032;50.782;6.818;2023-12-07T00:18:53;100923.72;;;3.25;78.97
72892;BME280;61032;50.782;6.818;2023-12-07T00:19:53;100924.00;;;3.29;79.22
72892;BME280;61032;50.782;6.818;2023-12-07T00:20:54;100923.19;;;3.28;79.50
72892;BME280;61032;50.782;6.818;2023-12-07T00:21:54;100925.91;;;3.28;79.55
72892;BME280;61032;50.782;6.818;2023-12-07T00:22:55;100925.34;;;3.26;79.54
72892;BME280;61032;50.782;6.818;2023-12-07T00:23:56;100923.19;;;3.28;79.70
72892;BME280;61032;50.782;6.818;2023-12-07T00:24:56;100922.91;;;3.30;79.75
72892;BME280;61032;50.782;6.818;2023-12-07T00:25:56;100922.06;;;3.34;80.06
72892;BME280;61032;50.782;6.818;2023-12-07T00:26:58;100920.44;;;3.38;79.67
72892;BME280;61032;50.782;6.818;2023-12-07T00:27:58;100920.72;;;3.42;79.72
72892;BME280;61032;50.782;6.818;2023-12-07T00:28:58;100935.13;;;3.42;79.06
72892;BME280;61032;50.782;6.818;2023-12-07T00:29:59;100927.78;;;3.43;78.67
72892;BME280;61032;50.782;6.818;2023-12-07T00:30:59;100928.06;;;3.41;78.69
72892;BME280;61032;50.782;6.818;2023-12-07T00:31:59;100934.59;;;3.40;78.56
72892;BME280;61032;50.782;6.818;2023-12-07T00:33:01;100932.69;;;3.31;78.20
72892;BME280;61032;50.782;6.818;2023-12-07T00:34:01;100929.41;;;3.34;78.35
72892;BME280;61032;50.782;6.818;2023-12-07T00:35:02;100926.16;;;3.27;78.24
72892;BME280;61032;50.782;6.818;2023-12-07T00:36:02;100929.16;;;3.25;77.97
72892;BME280;61032;50.782;6.818;2023-12-07T00:37:03;100925.09;;;3.28;77.82
72892;BME280;61032;50.782;6.818;2023-12-07T00:38:04;100925.88;;;3.33;78.18
72892;BME280;61032;50.782;6.818;2023-12-07T00:39:06;100929.69;;;3.27;78.12
72892;BME280;61032;50.782;6.818;2023-12-07T00:40:07;100927.25;;;3.26;78.00
72892;BME280;61032;50.782;6.818;2023-12-07T00:41:10;100920.19;;;3.20;78.32
72892;BME280;61032;50.782;6.818;2023-12-07T00:42:10;100926.16;;;3.27;78.26
72892;BME280;61032;50.782;6.818;2023-12-07T00:43:10;100924.25;;;3.17;78.26
72892;BME280;61032;50.782;6.818;2023-12-07T00:44:11;100924.78;;;3.19;78.53
72892;BME280;61032;50.782;6.818;2023-12-07T00:45:12;100924.78;;;3.19;79.57
72892;BME280;61032;50.782;6.818;2023-12-07T00:46:13;100928.06;;;3.21;80.15
72892;BME280;61032;50.782;6.818;2023-12-07T00:47:13;100922.09;;;3.24;79.58
72892;BME280;61032;50.782;6.818;2023-12-07T00:48:13;100925.91;;;3.28;79.78
72892;BME280;61032;50.782;6.818;2023-12-07T00:49:14;100926.44;;;3.30;79.47
72892;BME280;61032;50.782;6.818;2023-12-07T00:50:14;100926.69;;;3.34;79.44
72892;BME280;61032;50.782;6.818;2023-12-07T00:51:14;100925.88;;;3.38;79.38
72892;BME280;61032;50.782;6.818;2023-12-07T00:52:15;100930.22;;;3.39;78.79
72892;BME280;61032;50.782;6.818;2023-12-07T00:53:15;100922.34;;;3.38;78.47
72892;BME280;61032;50.782;6.818;2023-12-07T00:54:16;100928.06;;;3.36;78.25
72892;BME280;61032;50.782;6.818;2023-12-07T00:55:16;100923.97;;;3.34;77.57
72892;BME280;61032;50.782;6.818;2023-12-07T00:56:16;100930.25;;;3.24;78.29
72892;BME280;61032;50.782;6.818;2023-12-07T00:57:17;100930.78;;;3.31;78.91
72892;BME280;61032;50.782;6.818;2023-12-07T00:58:17;100922.88;;;3.35;77.95
72892;BME280;61032;50.782;6.818;2023-12-07T00:59:17;100926.97;;;3.27;77.87
72892;BME280;61032;50.782;6.818;2023-12-07T01:00:18;100924.78;;;3.19;78.39
72892;BME280;61032;50.782;6.818;2023-12-07T01:01:18;100924.53;;;3.21;78.62
72892;BME280;61032;50.782;6.818;2023-12-07T01:02:19;100933.75;;;3.15;78.76
72892;BME280;61032;50.782;6.818;2023-12-07T01:03:19;100928.88;;;3.06;79.01
72892;BME280;61032;50.782;6.818;2023-12-07T01:04:20;100926.97;;;3.07;79.64
72892;BME280;61032;50.782;6.818;2023-12-07T01:05:20;100930.50;;;3.07;79.87
72892;BME280;61032;50.782;6.818;2023-12-07T01:06:20;100937.56;;;3.08;79.72
72892;BME280;61032;50.782;6.818;2023-12-07T01:07:21;100930.22;;;3.14;79.90
72892;BME280;61032;50.782;6.818;2023-12-07T01:08:21;100934.84;;;3.14;79.36
72892;BME280;61032;50.782;6.818;2023-12-07T01:09:21;100936.47;;;3.04;79.18
72892;BME280;61032;50.782;6.818;2023-12-07T01:10:23;100933.47;;;2.91;79.35
72892;BME280;61032;50.782;6.818;2023-12-07T01:11:23;100934.00;;;2.88;79.74
72892;BME280;61032;50.782;6.818;2023-12-07T01:12:23;100932.34;;;2.92;80.50
72892;BME280;61032;50.782;6.818;2023-12-07T01:13:24;100931.00;;;2.89;80.33
72892;BME280;61032;50.782;6.818;2023-12-07T01:14:24;100937.25;;;2.90;80.61
72892;BME280;61032;50.782;6.818;2023-12-07T01:15:25;100934.00;;;2.88;80.25
72892;BME280;61032;50.782;6.818;2023-12-07T01:16:26;100934.81;;;2.93;80.53
72892;BME280;61032;50.782;6.818;2023-12-07T01:17:26;100942.16;;;2.98;80.12
72892;BME280;61032;50.782;6.818;2023-12-07T01:18:27;100943.78;;;2.99;80.03
72892;BME280;61032;50.782;6.818;2023-12-07T01:19:27;100944.31;;;2.91;79.77
72892;BME280;61032;50.782;6.818;2023-12-07T01:20:27;100934.53;;;2.90;79.92
72892;BME280;61032;50.782;6.818;2023-12-07T01:21:28;100943.22;;;2.97;80.14
72892;BME280;61032;50.782;6.818;2023-12-07T01:22:28;100931.84;;;3.00;79.87
72892;BME280;61032;50.782;6.818;2023-12-07T01:23:28;100933.19;;;3.02;80.06
72892;BME280;61032;50.782;6.818;2023-12-07T01:24:29;100930.19;;;2.99;79.80
72892;BME280;61032;50.782;6.818;2023-12-07T01:25:29;100937.28;;;3.05;79.97
72892;BME280;61032;50.782;6.818;2023-12-07T01:26:30;100926.97;;;3.07;80.60
72892;BME280;61032;50.782;6.818;2023-12-07T01:27:30;100937.00;;;3.06;80.52
72892;BME280;61032;50.782;6.818;2023-12-07T01:28:30;100932.13;;;3.03;79.88
72892;BME280;61032;50.782;6.818;2023-12-07T01:29:31;100932.94;;;3.09;80.06
72892;BME280;61032;50.782;6.818;2023-12-07T01:30:31;100916.91;;;3.18;79.98
72892;BME280;61032;50.782;6.818;2023-12-07T01:31:32;100928.59;;;3.13;79.39
72892;BME280;61032;50.782;6.818;2023-12-07T01:32:32;100929.94;;;3.16;79.53
72892;BME280;61032;50.782;6.818;2023-12-07T01:33:33;100935.66;;;3.14;79.56
72892;BME280;61032;50.782;6.818;2023-12-07T01:34:33;100932.41;;;3.17;79.59
72892;BME280;61032;50.782;6.818;2023-12-07T01:35:33;100937.81;;;3.12;79.74
72892;BME280;61032;50.782;6.818;2023-12-07T01:36:34;100933.47;;;3.16;79.91
72892;BME280;61032;50.782;6.818;2023-12-07T01:37:34;100937.00;;;3.17;79.50
72892;BME280;61032;50.782;6.818;2023-12-07T01:38:35;100940.81;;;3.16;79.45
72892;BME280;61032;50.782;6.818;2023-12-07T01:39:35;100929.16;;;3.10;80.45
72892;BME280;61032;50.782;6.818;2023-12-07T01:40:36;100936.72;;;3.13;80.57
72892;BME280;61032;50.782;6.818;2023-12-07T01:41:36;100930.22;;;3.19;80.45
72892;BME280;61032;50.782;6.818;2023-12-07T01:42:37;100931.31;;;3.23;80.61
72892;BME280;61032;50.782;6.818;2023-12-07T01:43:37;100937.56;;;3.24;80.54
72892;BME280;61032;50.782;6.818;2023-12-07T01:44:38;100939.47;;;3.28;79.96
72892;BME280;61032;50.782;6.818;2023-12-07T01:45:39;100934.88;;;3.29;79.64
72892;BME280;61032;50.782;6.818;2023-12-07T01:46:39;100937.84;;;3.32;79.82
72892;BME280;61032;50.782;6.818;2023-12-07T01:47:39;100935.69;;;3.29;79.58
72892;BME280;61032;50.782;6.818;2023-12-07T01:48:40;100938.38;;;3.24;79.38
72892;BME280;61032;50.782;6.818;2023-12-07T01:49:41;100941.63;;;3.21;79.50
72892;BME280;61032;50.782;6.818;2023-12-07T01:50:42;100951.41;;;3.22;79.48
72892;BME280;61032;50.782;6.818;2023-12-07T01:51:42;100946.81;;;3.23;79.58
72892;BME280;61032;50.782;6.818;2023-12-07T01:52:46;100950.91;;;3.30;79.04
72892;BME280;61032;50.782;6.818;2023-12-07T01:53:48;100944.38;;;3.31;79.15
72892;BME280;61032;50.782;6.818;2023-12-07T01:54:49;100944.09;;;3.33;79.02
72892;BME280;61032;50.782;6.818;2023-12-07T01:55:53;100946.53;;;3.34;79.14
72892;BME280;61032;50.782;6.818;2023-12-07T01:56:54;100950.06;;;3.45;79.17
72892;BME280;61032;50.782;6.818;2023-12-07T01:57:54;100950.06;;;3.45;78.40
72892;BME280;61032;50.782;6.818;2023-12-07T01:58:55;100953.63;;;3.30;78.53
72892;BME280;61032;50.782;6.818;2023-12-07T01:59:55;100957.97;;;3.31;79.32
72892;BME280;61032;50.782;6.818;2023-12-07T02:00:56;100951.44;;;3.37;79.75
72892;BME280;61032;50.782;6.818;2023-12-07T02:01:56;100958.50;;;3.43;79.04
72892;BME280;61032;50.782;6.818;2023-12-07T02:02:57;100956.34;;;3.45;78.94
72892;BME280;61032;50.782;6.818;2023-12-07T02:03:57;100961.50;;;3.42;79.17
72892;BME280;61032;50.782;6.818;2023-12-07T02:04:58;100958.50;;;3.49;79.09
72892;BME280;61032;50.782;6.818;2023-12-07T02:05:59;100962.03;;;3.54;79.36
72892;BME280;61032;50.782;6.818;2023-12-07T02:07:01;100959.59;;;3.53;78.99
72892;BME280;61032;50.782;6.818;2023-12-07T02:08:02;100959.59;;;3.53;78.79
72892;BME280;61032;50.782;6.818;2023-12-07T02:09:02;100961.75;;;3.56;79.17
72892;BME280;61032;50.782;6.818;2023-12-07T02:10:03;100962.28;;;3.58;79.02
72892;BME280;61032;50.782;6.818;2023-12-07T02:11:03;100959.03;;;3.56;78.40
72892;BME280;61032;50.782;6.818;2023-12-07T02:12:04;100961.75;;;3.56;78.63
72892;BME280;61032;50.782;6.818;2023-12-07T02:13:05;100960.66;;;3.62;78.80
72892;BME280;61032;50.782;6.818;2023-12-07T02:14:06;100959.31;;;3.64;78.39
72892;BME280;61032;50.782;6.818;2023-12-07T02:15:07;100966.91;;;3.62;78.03
72892;BME280;61032;50.782;6.818;2023-12-07T02:16:15;100962.31;;;3.68;78.67
72892;BME280;61032;50.782;6.818;2023-12-07T02:17:21;100960.69;;;3.72;78.04
72892;BME280;61032;50.782;6.818;2023-12-07T02:18:53;100960.41;;;3.73;77.43
72892;BME280;61032;50.782;6.818;2023-12-07T02:20:37;100964.19;;;3.77;77.40
72892;BME280;61032;50.782;6.818;2023-12-07T02:21:40;100960.09;;;3.75;77.85
72892;BME280;61032;50.782;6.818;2023-12-07T02:23:06;100964.22;;;3.72;78.58
72892;BME280;61032;50.782;6.818;2023-12-07T02:24:07;100968.28;;;3.70;78.43
72892;BME280;61032;50.782;6.818;2023-12-07T02:25:10;100962.03;;;3.64;78.00
72892;BME280;61032;50.782;6.818;2023-12-07T02:27:52;100960.41;;;3.68;78.08
72892;BME280;61032;50.782;6.818;2023-12-07T02:28:52;100967.47;;;3.69;78.18
72892;BME280;61032;50.782;6.818;2023-12-07T02:29:52;100969.63;;;3.62;78.11
72892;BME280;61032;50.782;6.818;2023-12-07T02:30:53;100971.00;;;3.70;78.48
72892;BME280;61032;50.782;6.818;2023-12-07T02:31:53;100968.03;;;3.71;78.51
72892;BME280;61032;50.782;6.818;2023-12-07T02:32:54;100973.19;;;3.73;78.07
72892;BME280;61032;50.782;6.818;2023-12-07T02:33:54;100969.63;;;3.77;78.65
72892;BME280;61032;50.782;6.818;2023-12-07T02:34:55;100971.53;;;3.77;78.31
72892;BME280;61032;50.782;6.818;2023-12-07T02:35:55;100969.34;;;3.84;79.16
72892;BME280;61032;50.782;6.818;2023-12-07T02:36:57;100970.44;;;3.78;77.77
72892;BME280;61032;50.782;6.818;2023-12-07T02:37:59;100969.34;;;3.84;77.85
72892;BME280;61032;50.782;6.818;2023-12-07T02:39:01;100969.63;;;3.88;78.49
72892;BME280;61032;50.782;6.818;2023-12-07T02:40:05;100960.94;;;3.91;78.06
72892;BME280;61032;50.782;6.818;2023-12-07T02:41:11;100966.91;;;3.93;77.86
72892;BME280;61032;50.782;6.818;2023-12-07T02:42:13;100962.00;;;3.85;77.27
72892;BME280;61032;50.782;6.818;2023-12-07T02:43:14;100961.75;;;3.86;77.48
72892;BME280;61032;50.782;6.818;2023-12-07T02:44:15;100960.09;;;3.80;77.54
72892;BME280;61032;50.782;6.818;2023-12-07T02:45:16;100959.03;;;3.86;77.25
72892;BME280;61032;50.782;6.818;2023-12-07T02:46:16;100958.78;;;3.72;76.81
72892;BME280;61032;50.782;6.818;2023-12-07T02:47:16;100957.94;;;3.77;76.69
72892;BME280;61032;50.782;6.818;2023-12-07T02:48:17;100962.81;;;3.80;77.62
72892;BME280;61032;50.782;6.818;2023-12-07T02:49:17;100961.75;;;3.66;77.30
72892;BME280;61032;50.782;6.818;2023-12-07T02:50:18;100960.69;;;3.72;77.21
72892;BME280;61032;50.782;6.818;2023-12-07T02:51:18;100964.22;;;3.62;78.03
72892;BME280;61032;50.782;6.818;2023-12-07T02:52:19;100960.94;;;3.65;77.99
72892;BME280;61032;50.782;6.818;2023-12-07T02:53:19;100953.34;;;3.67;78.16
72892;BME280;61032;50.782;6.818;2023-12-07T02:54:19;100950.88;;;3.66;77.89
72892;BME280;61032;50.782;6.818;2023-12-07T02:55:20;100951.13;;;3.74;77.67
72892;BME280;61032;50.782;6.818;2023-12-07T02:56:20;100951.94;;;3.80;77.72
72892;BME280;61032;50.782;6.818;2023-12-07T02:57:20;100945.44;;;3.76;77.41
72892;BME280;61032;50.782;6.818;2023-12-07T02:58:21;100950.88;;;3.81;78.06
72892;BME280;61032;50.782;6.818;2023-12-07T02:59:21;100949.78;;;3.77;77.98
72892;BME280;61032;50.782;6.818;2023-12-07T03:00:21;100954.66;;;3.75;77.45
72892;BME280;61032;50.782;6.818;2023-12-07T03:01:22;100956.31;;;3.76;77.67
72892;BME280;61032;50.782;6.818;2023-12-07T03:02:22;100950.91;;;3.71;78.00
72892;BME280;61032;50.782;6.818;2023-12-07T03:03:22;100951.44;;;3.73;78.20
72892;BME280;61032;50.782;6.818;2023-12-07T03:04:22;100947.06;;;3.77;78.52
72892;BME280;61032;50.782;6.818;2023-12-07T03:05:23;100950.31;;;3.79;78.01
72892;BME280;61032;50.782;6.818;2023-12-07T03:06:23;100949.22;;;3.80;77.59
72892;BME280;61032;50.782;6.818;2023-12-07T03:07:24;100947.34;;;3.80;78.24
72892;BME280;61032;50.782;6.818;2023-12-07T03:08:24;100944.06;;;3.78;78.01
72892;BME280;61032;50.782;6.818;2023-12-07T03:09:24;100944.34;;;3.77;77.93
72892;BME280;61032;50.782;6.818;2023-12-07T03:10:25;100947.06;;;3.82;77.79
72892;BME280;61032;50.782;6.818;2023-12-07T03:11:25;100945.69;;;3.85;78.27
72892;BME280;61032;50.782;6.818;2023-12-07T03:12:25;100953.59;;;3.91;77.97
72892;BME280;61032;50.782;6.818;2023-12-07T03:13:26;100948.16;;;3.91;77.54
72892;BME280;61032;50.782;6.818;2023-12-07T03:14:26;100954.13;;;3.83;77.86
72892;BME280;61032;50.782;6.818;2023-12-07T03:15:26;100943.78;;;3.80;77.65
72892;BME280;61032;50.782;6.818;2023-12-07T03:16:27;100944.63;;;3.86;77.78
72892;BME280;61032;50.782;6.818;2023-12-07T03:17:27;100953.31;;;3.88;78.14
72892;BME280;61032;50.782;6.818;2023-12-07T03:18:27;100955.22;;;3.92;78.54
72892;BME280;61032;50.782;6.818;2023-12-07T03:19:28;100954.13;;;3.93;77.87
72892;BME280;61032;50.782;6.818;2023-12-07T03:20:28;100954.13;;;3.88;77.67
72892;BME280;61032;50.782;6.818;2023-12-07T03:21:28;100946.50;;;3.80;77.72
72892;BME280;61032;50.782;6.818;2023-12-07T03:22:28;100949.78;;;3.82;78.02
72892;BME280;61032;50.782;6.818;2023-12-07T03:23:29;100943.25;;;3.83;77.25
72892;BME280;61032;50.782;6.818;2023-12-07T03:24:29;100936.19;;;3.77;77.02
72892;BME280;61032;50.782;6.818;2023-12-07T03:25:29;100943.81;;;3.70;76.81
72892;BME280;61032;50.782;6.818;2023-12-07T03:26:30;100944.34;;;3.77;77.42
72892;BME280;61032;50.782;6.818;2023-12-07T03:27:30;100937.81;;;3.78;77.67
72892;BME280;61032;50.782;6.818;2023-12-07T03:28:31;100942.19;;;3.74;77.24
72892;BME280;61032;50.782;6.818;2023-12-07T03:29:31;100938.94;;;3.67;77.48
72892;BME280;61032;50.782;6.818;2023-12-07T03:30:32;100947.63;;;3.69;78.47
72892;BME280;61032;50.782;6.818;2023-12-07T03:31:32;100938.94;;;3.67;78.16
72892;BME280;61032;50.782;6.818;2023-12-07T03:32:32;100943.53;;;3.66;78.28
72892;BME280;61032;50.782;6.818;2023-12-07T03:33:33;100948.16;;;3.61;78.02
72892;BME280;61032;50.782;6.818;2023-12-07T03:34:33;100949.78;;;3.57;78.16
72892;BME280;61032;50.782;6.818;2023-12-07T03:35:33;100947.63;;;3.54;78.09
72892;BME280;61032;50.782;6.818;2023-12-07T03:36:34;100935.94;;;3.58;78.23
72892;BME280;61032;50.782;6.818;2023-12-07T03:37:34;100944.09;;;3.58;77.86
72892;BME280;61032;50.782;6.818;2023-12-07T03:38:34;100942.19;;;3.54;77.82
72892;BME280;61032;50.782;6.818;2023-12-07T03:39:35;100943.03;;;3.49;77.76
72892;BME280;61032;50.782;6.818;2023-12-07T03:40:35;100947.91;;;3.47;78.07
72892;BME280;61032;50.782;6.818;2023-12-07T03:41:35;100943.84;;;3.50;78.03
72892;BME280;61032;50.782;6.818;2023-12-07T03:42:35;100946.81;;;3.43;78.27
72892;BME280;61032;50.782;6.818;2023-12-07T03:43:36;100945.72;;;3.44;77.97
72892;BME280;61032;50.782;6.818;2023-12-07T03:44:36;100945.72;;;3.44;78.65
72892;BME280;61032;50.782;6.818;2023-12-07T03:45:36;100946.78;;;3.33;78.56
72892;BME280;61032;50.782;6.818;2023-12-07T03:46:37;100955.78;;;3.28;78.78
72892;BME280;61032;50.782;6.818;2023-12-07T03:47:37;100942.19;;;3.33;78.76
72892;BME280;61032;50.782;6.818;2023-12-07T03:48:37;100946.78;;;3.33;78.82
72892;BME280;61032;50.782;6.818;2023-12-07T03:49:38;100935.41;;;3.36;78.66
72892;BME280;61032;50.782;6.818;2023-12-07T03:50:38;100941.66;;;3.31;78.18
72892;BME280;61032;50.782;6.818;2023-12-07T03:51:39;100928.06;;;3.31;78.39
72892;BME280;61032;50.782;6.818;2023-12-07T03:52:39;100936.75;;;3.23;78.96
72892;BME280;61032;50.782;6.818;2023-12-07T03:53:40;100936.75;;;3.23;78.72
72892;BME280;61032;50.782;6.818;2023-12-07T03:54:40;100934.84;;;3.24;79.19
72892;BME280;61032;50.782;6.818;2023-12-07T03:55:41;100932.69;;;3.21;78.90
72892;BME280;61032;50.782;6.818;2023-12-07T03:56:41;100929.97;;;3.21;78.59
72892;BME280;61032;50.782;6.818;2023-12-07T03:57:41;100941.91;;;3.09;78.48
72892;BME280;61032;50.782;6.818;2023-12-07T03:58:42;100932.41;;;3.07;78.92
72892;BME280;61032;50.782;6.818;2023-12-07T03:59:42;100934.84;;;3.03;79.25
72892;BME280;61032;50.782;6.818;2023-12-07T04:00:44;100938.91;;;2.91;79.32
72892;BME280;61032;50.782;6.818;2023-12-07T04:01:44;100937.25;;;2.95;80.03
72892;BME280;61032;50.782;6.818;2023-12-07T04:02:44;100932.94;;;3.04;79.77
72892;BME280;61032;50.782;6.818;2023-12-07T04:03:45;100940.00;;;3.05;80.14
72892;BME280;61032;50.782;6.818;2023-12-07T04:04:46;100944.34;;;3.06;79.15
72892;BME280;61032;50.782;6.818;2023-12-07T04:05:46;100940.28;;;3.08;79.24
72892;BME280;61032;50.782;6.818;2023-12-07T04:06:47;100935.66;;;3.09;78.98
72892;BME280;61032;50.782;6.818;2023-12-07T04:07:48;100938.38;;;3.14;79.05
72892;BME280;61032;50.782;6.818;2023-12-07T04:08:49;100931.84;;;3.20;78.96
72892;BME280;61032;50.782;6.818;2023-12-07T04:09:49;100940.81;;;3.16;78.58
72892;BME280;61032;50.782;6.818;2023-12-07T04:10:49;100939.19;;;3.09;78.37
72892;BME280;61032;50.782;6.818;2023-12-07T04:11:50;100950.31;;;3.08;78.33
72892;BME280;61032;50.782;6.818;2023-12-07T04:12:50;100947.06;;;3.06;78.35
72892;BME280;61032;50.782;6.818;2023-12-07T04:13:52;100946.50;;;2.99;78.47
72892;BME280;61032;50.782;6.818;2023-12-07T04:14:53;100947.84;;;2.96;78.75
72892;BME280;61032;50.782;6.818;2023-12-07T04:15:53;100943.22;;;2.92;79.06
72892;BME280;61032;50.782;6.818;2023-12-07T04:16:53;100943.22;;;2.97;79.12
72892;BME280;61032;50.782;6.818;2023-12-07T04:17:54;100939.16;;;2.94;79.48
72892;BME280;61032;50.782;6.818;2023-12-07T04:18:54;100939.16;;;2.94;79.09
72892;BME280;61032;50.782;6.818;2023-12-07T04:19:54;100943.50;;;2.95;78.93
72892;BME280;61032;50.782;6.818;2023-12-07T04:20:54;100950.28;;;2.98;79.28
72892;BME280;61032;50.782;6.818;2023-12-07T04:21:55;100954.91;;;2.97;78.94
72892;BME280;61032;50.782;6.818;2023-12-07T04:22:55;100945.66;;;2.93;78.77
72892;BME280;61032;50.782;6.818;2023-12-07T04:23:56;100953.81;;;2.93;79.24
72892;BME280;61032;50.782;6.818;2023-12-07T04:24:56;100953.56;;;2.90;78.59
72892;BME280;61032;50.782;6.818;2023-12-07T04:25:56;100957.88;;;2.86;79.00
72892;BME280;61032;50.782;6.818;2023-12-07T04:26:57;100947.00;;;2.81;79.34
72892;BME280;61032;50.782;6.818;2023-12-07T04:27:58;100952.19;;;2.87;79.83
72892;BME280;61032;50.782;6.818;2023-12-07T04:28:58;100951.91;;;2.89;79.35
72892;BME280;61032;50.782;6.818;2023-12-07T04:29:59;100955.19;;;2.91;78.78
72892;BME280;61032;50.782;6.818;2023-12-07T04:30:59;100954.63;;;2.89;78.84
72892;BME280;61032;50.782;6.818;2023-12-07T04:31:59;100950.28;;;2.88;79.34
72892;BME280;61032;50.782;6.818;2023-12-07T04:33:00;100951.91;;;2.89;78.57
72892;BME280;61032;50.782;6.818;2023-12-07T04:34:00;100954.91;;;2.87;79.16
72892;BME280;61032;50.782;6.818;2023-12-07T04:35:01;100955.72;;;2.88;79.24
72892;BME280;61032;50.782;6.818;2023-12-07T04:36:02;100952.16;;;2.82;79.51
72892;BME280;61032;50.782;6.818;2023-12-07T04:37:04;100950.25;;;2.78;79.56
72892;BME280;61032;50.782;6.818;2023-12-07T04:38:05;100959.75;;;2.80;79.27
72892;BME280;61032;50.782;6.818;2023-12-07T04:39:05;100952.16;;;2.82;79.59
72892;BME280;61032;50.782;6.818;2023-12-07T04:40:06;100957.03;;;2.75;79.47
72892;BME280;61032;50.782;6.818;2023-12-07T04:41:07;100962.72;;;2.79;79.39
72892;BME280;61032;50.782;6.818;2023-12-07T04:42:07;100959.50;;;2.82;79.31
72892;BME280;61032;50.782;6.818;2023-12-07T04:43:08;100962.50;;;2.85;78.74
72892;BME280;61032;50.782;6.818;2023-12-07T04:44:08;100962.78;;;2.89;78.83
72892;BME280;61032;50.782;6.818;2023-12-07T04:45:09;100964.09;;;2.81;78.89
72892;BME280;61032;50.782;6.818;2023-12-07T04:46:09;100967.63;;;2.76;79.09
72892;BME280;61032;50.782;6.818;2023-12-07T04:47:09;100967.63;;;2.76;79.40
72892;BME280;61032;50.782;6.818;2023-12-07T04:48:10;100967.34;;;2.78;79.22
72892;BME280;61032;50.782;6.818;2023-12-07T04:49:10;100968.69;;;2.75;79.38
72892;BME280;61032;50.782;6.818;2023-12-07T04:50:11;100964.09;;;2.76;79.47
72892;BME280;61032;50.782;6.818;2023-12-07T04:51:11;100966.53;;;2.78;79.56
72892;BME280;61032;50.782;6.818;2023-12-07T04:52:11;100966.78;;;2.76;78.63
72892;BME280;61032;50.782;6.818;2023-12-07T04:53:12;100980.09;;;2.67;78.99
72892;BME280;61032;50.782;6.818;2023-12-07T04:54:13;100975.47;;;2.73;79.00
72892;BME280;61032;50.782;6.818;2023-12-07T04:55:14;100974.13;;;2.75;78.95
72892;BME280;61032;50.782;6.818;2023-12-07T04:56:16;100978.72;;;2.75;78.76
72892;BME280;61032;50.782;6.818;2023-12-07T04:57:16;100977.09;;;2.74;78.90
72892;BME280;61032;50.782;6.818;2023-12-07T04:58:16;100980.91;;;2.73;79.07
72892;BME280;61032;50.782;6.818;2023-12-07T04:59:17;100983.34;;;2.69;78.88
72892;BME280;61032;50.782;6.818;2023-12-07T05:00:17;100980.59;;;2.64;79.49
72892;BME280;61032;50.782;6.818;2023-12-07T05:01:18;100978.94;;;2.58;79.41
72892;BME280;61032;50.782;6.818;2023-12-07T05:02:21;100978.94;;;2.58;79.55
72892;BME280;61032;50.782;6.818;2023-12-07T05:03:22;100974.06;;;2.60;79.84
72892;BME280;61032;50.782;6.818;2023-12-07T05:04:22;100978.69;;;2.60;79.68
72892;BME280;61032;50.782;6.818;2023-12-07T05:05:23;100976.78;;;2.60;79.33
72892;BME280;61032;50.782;6.818;2023-12-07T05:06:24;100978.66;;;2.55;79.42
72892;BME280;61032;50.782;6.818;2023-12-07T05:07:25;100985.19;;;2.59;79.79
72892;BME280;61032;50.782;6.818;2023-12-07T05:08:25;100982.78;;;2.62;79.32
72892;BME280;61032;50.782;6.818;2023-12-07T05:09:25;100979.25;;;2.62;79.74
72892;BME280;61032;50.782;6.818;2023-12-07T05:10:26;100981.06;;;2.51;79.49
72892;BME280;61032;50.782;6.818;2023-12-07T05:11:26;100986.81;;;2.55;79.88
72892;BME280;61032;50.782;6.818;2023-12-07T05:12:26;100984.59;;;2.52;79.95
72892;BME280;61032;50.782;6.818;2023-12-07T05:13:27;100986.50;;;2.46;79.86
72892;BME280;61032;50.782;6.818;2023-12-07T05:14:27;100984.34;;;2.48;80.29
72892;BME280;61032;50.782;6.818;2023-12-07T05:15:27;100989.47;;;2.50;80.06
72892;BME280;61032;50.782;6.818;2023-12-07T05:16:28;100982.97;;;2.51;79.85
72892;BME280;61032;50.782;6.818;2023-12-07T05:17:28;100981.09;;;2.56;79.75
72892;BME280;61032;50.782;6.818;2023-12-07T05:18:28;100978.91;;;2.53;79.40
72892;BME280;61032;50.782;6.818;2023-12-07T05:19:29;100978.94;;;2.58;79.82
72892;BME280;61032;50.782;6.818;2023-12-07T05:20:29;100986.31;;;2.63;79.45
72892;BME280;61032;50.782;6.818;2023-12-07T05:21:30;100993.63;;;2.62;79.83
72892;BME280;61032;50.782;6.818;2023-12-07T05:22:31;100993.63;;;2.62;79.34
72892;BME280;61032;50.782;6.818;2023-12-07T05:23:31;100993.63;;;2.62;79.37
72892;BME280;61032;50.782;6.818;2023-12-07T05:24:31;100995.81;;;2.65;79.61